Terminal Aerodrome Forecast
Issued by NWS Albuquerque, NM

Home | Current Version | Previous Version | Text Only | Print | Product List | Glossary On
Versions: 1 2 3 4 5 6 7 8 9 10 11 12 13 14 15 16
000
FTUS45 KABQ 242338
TAFABQ
TAF
KABQ 242338Z 2500/2524 16011KT P6SM VCTS BKN070CB
      TEMPO 2500/2502 VRB15G30KT -TSRA BKN060CB
     FM250200 15010KT P6SM VCSH BKN080
     FM250400 14010KT P6SM SCT080 BKN120
     FM251600 24006KT P6SM SCT120
     FM252200 24008KT P6SM VCTS BKN080CB=

USA.gov is the U.S. government's official web portal to all federal, state and local government web resources and services.